sensor_id;sensor_type;location;lat;lon;timestamp;pressure;altitude;pressure_sealevel;temperature;humidity
60228;BME280;46091;46.512;6.626;2023-12-07T06:31:13;97178.63;;;6.25;59.88
60228;BME280;46091;46.512;6.626;2023-12-07T06:33:17;97172.50;;;6.51;59.59
60228;BME280;46091;46.512;6.626;2023-12-07T06:35:20;97171.94;;;6.73;58.94
60228;BME280;46091;46.512;6.626;2023-12-07T06:37:23;97164.41;;;6.86;58.28
60228;BME280;46091;46.512;6.626;2023-12-07T06:39:26;97170.34;;;6.96;58.12
60228;BME280;46091;46.512;6.626;2023-12-07T06:41:29;97162.16;;;7.08;57.88
60228;BME280;46091;46.512;6.626;2023-12-07T06:43:31;97165.47;;;7.18;57.69
60228;BME280;46091;46.512;6.626;2023-12-07T06:45:34;97153.44;;;7.23;57.45
60228;BME280;46091;46.512;6.626;2023-12-07T06:47:38;97162.66;;;7.27;57.10
60228;BME280;46091;46.512;6.626;2023-12-07T06:49:41;97175.00;;;7.27;56.81
60228;BME280;46091;46.512;6.626;2023-12-07T06:51:53;97178.63;;;7.26;56.46
60228;BME280;46091;46.512;6.626;2023-12-07T06:53:56;97184.88;;;7.25;56.16
60228;BME280;46091;46.512;6.626;2023-12-07T06:55:59;97181.91;;;7.28;56.13
60228;BME280;46091;46.512;6.626;2023-12-07T06:58:02;97171.69;;;7.33;55.92
60228;BME280;46091;46.512;6.626;2023-12-07T07:00:06;97182.56;;;7.38;55.75
60228;BME280;46091;46.512;6.626;2023-12-07T07:02:12;97174.84;;;7.37;55.24
60228;BME280;46091;46.512;6.626;2023-12-07T07:04:17;97177.63;;;7.35;55.37
60228;BME280;46091;46.512;6.626;2023-12-07T07:06:20;97192.28;;;7.38;55.16
60228;BME280;46091;46.512;6.626;2023-12-07T07:08:23;97191.94;;;7.41;55.10
60228;BME280;46091;46.512;6.626;2023-12-07T07:10:25;97194.06;;;7.45;54.73
60228;BME280;46091;46.512;6.626;2023-12-07T07:12:28;97204.28;;;7.48;54.57
60228;BME280;46091;46.512;6.626;2023-12-07T07:14:31;97184.53;;;7.44;54.06
60228;BME280;46091;46.512;6.626;2023-12-07T07:16:34;97185.53;;;7.43;54.24
60228;BME280;46091;46.512;6.626;2023-12-07T07:18:37;97185.34;;;7.45;54.16
60228;BME280;46091;46.512;6.626;2023-12-07T07:20:42;97186.00;;;7.47;54.08
60228;BME280;46091;46.512;6.626;2023-12-07T07:22:46;97176.00;;;7.50;54.02
60228;BME280;46091;46.512;6.626;2023-12-07T07:24:49;97183.88;;;7.50;53.86
60228;BME280;46091;46.512;6.626;2023-12-07T07:26:52;97191.44;;;7.53;53.61
60228;BME280;46091;46.512;6.626;2023-12-07T07:28:54;97182.56;;;7.54;53.63
60228;BME280;46091;46.512;6.626;2023-12-07T07:30:57;97191.13;;;7.56;53.45
60228;BME280;46091;46.512;6.626;2023-12-07T07:33:00;97194.09;;;7.62;53.05
60228;BME280;46091;46.512;6.626;2023-12-07T07:35:04;97182.56;;;7.63;53.29
60228;BME280;46091;46.512;6.626;2023-12-07T07:37:08;97187.31;;;7.67;53.04
60228;BME280;46091;46.512;6.626;2023-12-07T07:39:11;97192.94;;;7.72;53.13
60228;BME280;46091;46.512;6.626;2023-12-07T07:41:15;97196.06;;;7.76;52.99
60228;BME280;46091;46.512;6.626;2023-12-07T07:43:18;97189.63;;;7.78;52.94
60228;BME280;46091;46.512;6.626;2023-12-07T07:45:21;97181.91;;;7.77;52.59
60228;BME280;46091;46.512;6.626;2023-12-07T07:47:25;97183.53;;;7.78;52.69
60228;BME280;46091;46.512;6.626;2023-12-07T07:49:28;97179.91;;;7.79;52.57
60228;BME280;46091;46.512;6.626;2023-12-07T07:51:31;97171.84;;;7.80;52.33
60228;BME280;46091;46.512;6.626;2023-12-07T07:53:36;97174.47;;;7.80;52.35
60228;BME280;46091;46.512;6.626;2023-12-07T07:55:37;97176.28;;;7.80;52.18
60228;BME280;46091;46.512;6.626;2023-12-07T07:57:41;97159.69;;;7.79;52.44
60228;BME280;46091;46.512;6.626;2023-12-07T07:59:44;97164.13;;;7.79;52.43
60228;BME280;46091;46.512;6.626;2023-12-07T08:01:47;97156.06;;;7.80;52.42
60228;BME280;46091;46.512;6.626;2023-12-07T08:03:51;97156.56;;;7.84;52.15
60228;BME280;46091;46.512;6.626;2023-12-07T08:05:54;97157.38;;;7.84;52.27
60228;BME280;46091;46.512;6.626;2023-12-07T08:07:56;97159.03;;;7.85;51.80
60228;BME280;46091;46.512;6.626;2023-12-07T08:10:00;97152.94;;;7.85;51.86
60228;BME280;46091;46.512;6.626;2023-12-07T08:12:05;97142.41;;;7.85;51.98
60228;BME280;46091;46.512;6.626;2023-12-07T08:14:10;97138.31;;;7.82;51.85
60228;BME280;46091;46.512;6.626;2023-12-07T08:16:13;97134.19;;;7.80;51.63
60228;BME280;46091;46.512;6.626;2023-12-07T08:18:16;97142.06;;;7.80;51.36
60228;BME280;46091;46.512;6.626;2023-12-07T08:20:18;97137.00;;;7.78;51.17
60228;BME280;46091;46.512;6.626;2023-12-07T08:22:21;97129.91;;;7.79;51.51
60228;BME280;46091;46.512;6.626;2023-12-07T08:24:24;97131.56;;;7.80;51.45
60228;BME280;46091;46.512;6.626;2023-12-07T08:26:29;97138.31;;;7.82;51.56
60228;BME280;46091;46.512;6.626;2023-12-07T08:28:31;97139.13;;;7.83;51.41
60228;BME280;46091;46.512;6.626;2023-12-07T08:30:34;97136.97;;;7.86;51.46
60228;BME280;46091;46.512;6.626;2023-12-07T08:32:38;97117.38;;;7.89;51.51
60228;BME280;46091;46.512;6.626;2023-12-07T08:34:41;97094.16;;;7.93;51.21
60228;BME280;46091;46.512;6.626;2023-12-07T08:36:45;97103.56;;;7.95;51.32
60228;BME280;46091;46.512;6.626;2023-12-07T08:38:49;97103.56;;;7.95;50.92
60228;BME280;46091;46.512;6.626;2023-12-07T08:40:52;97109.81;;;7.94;50.94
60228;BME280;46091;46.512;6.626;2023-12-07T08:42:57;97104.88;;;7.91;51.15
60228;BME280;46091;46.512;6.626;2023-12-07T08:44:59;97110.81;;;7.93;51.20
60228;BME280;46091;46.512;6.626;2023-12-07T08:47:03;97120.34;;;7.94;51.04
60228;BME280;46091;46.512;6.626;2023-12-07T08:49:06;97124.47;;;7.97;51.07
60228;BME280;46091;46.512;6.626;2023-12-07T08:51:10;97137.44;;;7.98;50.98
60228;BME280;46091;46.512;6.626;2023-12-07T08:53:13;97128.72;;;7.98;51.11
60228;BME280;46091;46.512;6.626;2023-12-07T08:55:16;97125.75;;;8.01;50.82
60228;BME280;46091;46.512;6.626;2023-12-07T08:57:20;97118.03;;;7.99;50.39
60228;BME280;46091;46.512;6.626;2023-12-07T08:59:25;97097.31;;;7.96;50.70
60228;BME280;46091;46.512;6.626;2023-12-07T09:01:28;97089.06;;;7.91;50.54
60228;BME280;46091;46.512;6.626;2023-12-07T09:03:34;97093.88;;;7.87;50.71
60228;BME280;46091;46.512;6.626;2023-12-07T09:05:38;97095.69;;;7.87;50.52
60228;BME280;46091;46.512;6.626;2023-12-07T09:07:42;97090.72;;;7.92;50.36
60228;BME280;46091;46.512;6.626;2023-12-07T09:09:44;97096.16;;;7.99;50.46
60228;BME280;46091;46.512;6.626;2023-12-07T09:11:49;97096.31;;;8.05;50.54
60228;BME280;46091;46.512;6.626;2023-12-07T09:13:52;97094.97;;;8.09;50.38
60228;BME280;46091;46.512;6.626;2023-12-07T09:16:00;97092.16;;;8.11;50.26
60228;BME280;46091;46.512;6.626;2023-12-07T09:18:02;97087.69;;;8.11;50.28
60228;BME280;46091;46.512;6.626;2023-12-07T09:20:06;97087.06;;;8.09;50.24
60228;BME280;46091;46.512;6.626;2023-12-07T09:22:14;97084.25;;;8.11;50.44
60228;BME280;46091;46.512;6.626;2023-12-07T09:24:23;97074.53;;;8.11;50.23
60228;BME280;46091;46.512;6.626;2023-12-07T09:26:26;97070.59;;;8.15;50.06
60228;BME280;46091;46.512;6.626;2023-12-07T09:28:31;97073.53;;;8.21;50.24
60228;BME280;46091;46.512;6.626;2023-12-07T09:30:34;97083.69;;;8.24;50.23
60228;BME280;46091;46.512;6.626;2023-12-07T09:32:39;97091.78;;;8.22;50.02
60228;BME280;46091;46.512;6.626;2023-12-07T09:34:44;97099.50;;;8.24;49.92
60228;BME280;46091;46.512;6.626;2023-12-07T09:36:47;97109.88;;;8.25;50.32
60228;BME280;46091;46.512;6.626;2023-12-07T09:38:49;97099.66;;;8.30;50.56
60228;BME280;46091;46.512;6.626;2023-12-07T09:40:53;97096.84;;;8.32;50.27
60228;BME280;46091;46.512;6.626;2023-12-07T09:42:57;97088.78;;;8.33;50.74
60228;BME280;46091;46.512;6.626;2023-12-07T09:45:00;97082.34;;;8.36;50.72
60228;BME280;46091;46.512;6.626;2023-12-07T09:47:03;97077.91;;;8.36;50.53
60228;BME280;46091;46.512;6.626;2023-12-07T09:49:09;97072.50;;;8.30;51.03
60228;BME280;46091;46.512;6.626;2023-12-07T09:51:13;97075.44;;;8.27;50.73
60228;BME280;46091;46.512;6.626;2023-12-07T09:53:15;97076.13;;;8.29;50.95
60228;BME280;46091;46.512;6.626;2023-12-07T09:55:18;97075.31;;;8.28;51.32
60228;BME280;46091;46.512;6.626;2023-12-07T09:57:24;97076.13;;;8.29;51.11
60228;BME280;46091;46.512;6.626;2023-12-07T09:59:31;97076.75;;;8.31;51.03
60228;BME280;46091;46.512;6.626;2023-12-07T10:01:34;97075.28;;;8.36;51.21
60228;BME280;46091;46.512;6.626;2023-12-07T10:03:37;97070.16;;;8.43;51.33
60228;BME280;46091;46.512;6.626;2023-12-07T10:05:56;97066.00;;;8.49;51.13
60228;BME280;46091;46.512;6.626;2023-12-07T10:08:00;97072.94;;;8.50;51.45
60228;BME280;46091;46.512;6.626;2023-12-07T10:10:04;97058.09;;;8.49;51.41
60228;BME280;46091;46.512;6.626;2023-12-07T10:12:07;97057.59;;;8.53;51.65
60228;BME280;46091;46.512;6.626;2023-12-07T10:14:10;97057.22;;;8.56;51.56
60228;BME280;46091;46.512;6.626;2023-12-07T10:16:14;97063.44;;;8.63;51.44
60228;BME280;46091;46.512;6.626;2023-12-07T10:18:23;97061.16;;;8.60;50.87
60228;BME280;46091;46.512;6.626;2023-12-07T10:20:27;97064.13;;;8.57;50.68
60228;BME280;46091;46.512;6.626;2023-12-07T10:22:32;97064.50;;;8.54;50.85
60228;BME280;46091;46.512;6.626;2023-12-07T10:24:35;97059.22;;;8.54;50.76
60228;BME280;46091;46.512;6.626;2023-12-07T10:26:39;97066.13;;;8.55;50.56
60228;BME280;46091;46.512;6.626;2023-12-07T10:28:45;97076.66;;;8.55;50.69
60228;BME280;46091;46.512;6.626;2023-12-07T10:30:50;97067.59;;;8.58;50.65
60228;BME280;46091;46.512;6.626;2023-12-07T10:32:53;97073.50;;;8.60;50.69
60228;BME280;46091;46.512;6.626;2023-12-07T10:34:57;97065.44;;;8.61;50.38
60228;BME280;46091;46.512;6.626;2023-12-07T10:37:03;97054.91;;;8.61;50.53
60228;BME280;46091;46.512;6.626;2023-12-07T10:39:07;97062.63;;;8.63;50.36
60228;BME280;46091;46.512;6.626;2023-12-07T10:41:23;97068.53;;;8.65;50.31
60228;BME280;46091;46.512;6.626;2023-12-07T10:43:26;97063.44;;;8.63;50.12
60228;BME280;46091;46.512;6.626;2023-12-07T10:45:30;97058.50;;;8.60;50.06
60228;BME280;46091;46.512;6.626;2023-12-07T10:47:35;97063.78;;;8.60;50.16
60228;BME280;46091;46.512;6.626;2023-12-07T10:49:40;97060.81;;;8.63;49.65
60228;BME280;46091;46.512;6.626;2023-12-07T10:51:51;97048.47;;;8.64;49.46
60228;BME280;46091;46.512;6.626;2023-12-07T10:54:00;97045.00;;;8.63;49.61
60228;BME280;46091;46.512;6.626;2023-12-07T10:56:10;97047.63;;;8.63;49.27
60228;BME280;46091;46.512;6.626;2023-12-07T10:58:13;97053.72;;;8.64;49.44
60228;BME280;46091;46.512;6.626;2023-12-07T11:00:18;97051.28;;;8.62;49.64
60228;BME280;46091;46.512;6.626;2023-12-07T11:02:38;97043.19;;;8.64;49.41
60228;BME280;46091;46.512;6.626;2023-12-07T11:04:43;97040.03;;;8.68;49.14
60228;BME280;46091;46.512;6.626;2023-12-07T11:06:50;97038.03;;;8.70;49.02
60228;BME280;46091;46.512;6.626;2023-12-07T11:08:58;97030.94;;;8.71;47.40
60228;BME280;46091;46.512;6.626;2023-12-07T11:11:07;97029.00;;;8.65;48.15
60228;BME280;46091;46.512;6.626;2023-12-07T11:13:17;97030.66;;;8.66;48.22
60228;BME280;46091;46.512;6.626;2023-12-07T11:15:21;97041.31;;;8.72;48.30
60228;BME280;46091;46.512;6.626;2023-12-07T11:17:24;97040.31;;;8.73;48.26
60228;BME280;46091;46.512;6.626;2023-12-07T11:19:46;97046.59;;;8.72;48.27
60228;BME280;46091;46.512;6.626;2023-12-07T11:21:50;97037.69;;;8.73;48.41
60228;BME280;46091;46.512;6.626;2023-12-07T11:23:53;97038.69;;;8.72;47.77
60228;BME280;46091;46.512;6.626;2023-12-07T11:25:57;97033.94;;;8.68;47.74
60228;BME280;46091;46.512;6.626;2023-12-07T11:28:03;97031.28;;;8.68;47.67
60228;BME280;46091;46.512;6.626;2023-12-07T11:30:07;97039.19;;;8.68;47.85
60228;BME280;46091;46.512;6.626;2023-12-07T11:32:10;97036.38;;;8.69;47.64
60228;BME280;46091;46.512;6.626;2023-12-07T11:34:33;97038.69;;;8.72;48.11
60228;BME280;46091;46.512;6.626;2023-12-07T11:36:37;97042.78;;;8.75;47.98
60228;BME280;46091;46.512;6.626;2023-12-07T11:41:28;97028.28;;;8.71;47.17
60228;BME280;46091;46.512;6.626;2023-12-07T11:43:42;97015.84;;;8.65;47.00
60228;BME280;46091;46.512;6.626;2023-12-07T11:45:48;97011.06;;;8.60;46.90
60228;BME280;46091;46.512;6.626;2023-12-07T11:48:06;97011.44;;;8.57;47.16
60228;BME280;46091;46.512;6.626;2023-12-07T11:50:08;97006.53;;;8.54;47.25
60228;BME280;46091;46.512;6.626;2023-12-07T11:52:13;96991.34;;;8.56;47.04
60228;BME280;46091;46.512;6.626;2023-12-07T11:54:16;96986.72;;;8.58;47.21
60228;BME280;46091;46.512;6.626;2023-12-07T11:56:19;96983.09;;;8.59;46.66
60228;BME280;46091;46.512;6.626;2023-12-07T11:58:24;96984.72;;;8.60;46.60
60228;BME280;46091;46.512;6.626;2023-12-07T12:00:28;96976.53;;;8.55;46.07
60228;BME280;46091;46.512;6.626;2023-12-07T12:02:30;96977.53;;;8.54;46.71
60228;BME280;46091;46.512;6.626;2023-12-07T12:04:37;96978.00;;;8.58;46.88
60228;BME280;46091;46.512;6.626;2023-12-07T12:06:43;96963.31;;;8.63;46.79
60228;BME280;46091;46.512;6.626;2023-12-07T12:08:46;96969.03;;;8.67;46.95
60228;BME280;46091;46.512;6.626;2023-12-07T12:10:50;96973.13;;;8.69;46.94
60228;BME280;46091;46.512;6.626;2023-12-07T12:12:54;96973.75;;;8.71;47.04
60228;BME280;46091;46.512;6.626;2023-12-07T12:14:57;96970.16;;;8.72;47.24
60228;BME280;46091;46.512;6.626;2023-12-07T12:17:02;96968.97;;;8.75;47.05
60228;BME280;46091;46.512;6.626;2023-12-07T12:19:05;96977.72;;;8.75;46.87
60228;BME280;46091;46.512;6.626;2023-12-07T12:21:12;96972.94;;;8.71;46.77
60228;BME280;46091;46.512;6.626;2023-12-07T12:23:14;96961.94;;;8.67;47.19
60228;BME280;46091;46.512;6.626;2023-12-07T12:25:17;96961.75;;;8.69;47.10
60228;BME280;46091;46.512;6.626;2023-12-07T12:27:20;96960.94;;;8.68;47.23
60228;BME280;46091;46.512;6.626;2023-12-07T12:29:24;96968.69;;;8.70;47.15
60228;BME280;46091;46.512;6.626;2023-12-07T12:31:35;96965.03;;;8.71;47.27
60228;BME280;46091;46.512;6.626;2023-12-07T12:33:39;96962.88;;;8.74;47.40
60228;BME280;46091;46.512;6.626;2023-12-07T12:35:43;96952.34;;;8.74;47.27
60228;BME280;46091;46.512;6.626;2023-12-07T12:37:47;96947.34;;;8.80;47.17
60228;BME280;46091;46.512;6.626;2023-12-07T12:39:49;96939.25;;;8.81;47.39
60228;BME280;46091;46.512;6.626;2023-12-07T12:41:54;96931.97;;;8.83;47.10
60228;BME280;46091;46.512;6.626;2023-12-07T12:43:57;96934.09;;;8.88;47.23
60228;BME280;46091;46.512;6.626;2023-12-07T12:46:01;96937.38;;;8.90;47.16
60228;BME280;46091;46.512;6.626;2023-12-07T12:48:07;96930.09;;;8.92;47.11
60228;BME280;46091;46.512;6.626;2023-12-07T12:50:32;96930.09;;;8.92;47.43
60228;BME280;46091;46.512;6.626;2023-12-07T12:52:36;96920.19;;;8.94;47.26
60228;BME280;46091;46.512;6.626;2023-12-07T12:54:42;96911.47;;;8.93;47.07
60228;BME280;46091;46.512;6.626;2023-12-07T12:56:45;96919.09;;;8.88;46.38
60228;BME280;46091;46.512;6.626;2023-12-07T12:58:48;96926.91;;;8.82;47.10
60228;BME280;46091;46.512;6.626;2023-12-07T13:00:52;96926.91;;;8.82;47.40
60228;BME280;46091;46.512;6.626;2023-12-07T13:02:57;96918.66;;;8.85;47.36
60228;BME280;46091;46.512;6.626;2023-12-07T13:05:00;96915.84;;;8.86;47.46
60228;BME280;46091;46.512;6.626;2023-12-07T13:07:06;96910.00;;;8.91;47.30
60228;BME280;46091;46.512;6.626;2023-12-07T13:09:09;96918.56;;;8.93;47.50
60228;BME280;46091;46.512;6.626;2023-12-07T13:11:14;96917.56;;;8.94;47.55
60228;BME280;46091;46.512;6.626;2023-12-07T13:13:18;96919.66;;;8.98;47.62
60228;BME280;46091;46.512;6.626;2023-12-07T13:15:20;96912.22;;;9.02;47.66
60228;BME280;46091;46.512;6.626;2023-12-07T13:17:23;96903.09;;;9.04;47.55
60228;BME280;46091;46.512;6.626;2023-12-07T13:19:28;96902.78;;;9.08;47.96
60228;BME280;46091;46.512;6.626;2023-12-07T13:21:31;96898.13;;;9.10;47.87
60228;BME280;46091;46.512;6.626;2023-12-07T13:23:36;96898.31;;;9.08;47.66
60228;BME280;46091;46.512;6.626;2023-12-07T13:25:39;96891.22;;;9.09;47.62
60228;BME280;46091;46.512;6.626;2023-12-07T13:27:42;96891.22;;;9.09;47.57
60228;BME280;46091;46.512;6.626;2023-12-07T13:29:44;96882.50;;;9.08;47.63
60228;BME280;46091;46.512;6.626;2023-12-07T13:31:47;96875.72;;;9.05;47.74
60228;BME280;46091;46.512;6.626;2023-12-07T13:33:51;96881.00;;;9.05;47.59
60228;BME280;46091;46.512;6.626;2023-12-07T13:35:58;96863.91;;;9.01;47.35
60228;BME280;46091;46.512;6.626;2023-12-07T13:38:07;96857.00;;;9.00;47.41
60228;BME280;46091;46.512;6.626;2023-12-07T13:40:12;96856.19;;;9.00;47.35
60228;BME280;46091;46.512;6.626;2023-12-07T13:42:17;96853.56;;;9.00;47.36
60228;BME280;46091;46.512;6.626;2023-12-07T13:44:20;96842.63;;;9.03;47.41
60228;BME280;46091;46.512;6.626;2023-12-07T13:46:29;96842.47;;;9.04;47.23
60228;BME280;46091;46.512;6.626;2023-12-07T13:48:32;96843.13;;;9.07;47.19
60228;BME280;46091;46.512;6.626;2023-12-07T13:50:36;96837.66;;;9.08;47.44
60228;BME280;46091;46.512;6.626;2023-12-07T13:52:39;96824.09;;;9.11;47.48
60228;BME280;46091;46.512;6.626;2023-12-07T13:54:42;96826.53;;;9.13;47.20
60228;BME280;46091;46.512;6.626;2023-12-07T13:56:56;96821.09;;;9.14;47.13
60228;BME280;46091;46.512;6.626;2023-12-07T13:58:59;96813.34;;;9.13;47.05
60228;BME280;46091;46.512;6.626;2023-12-07T14:01:02;96814.19;;;9.13;47.03
60228;BME280;46091;46.512;6.626;2023-12-07T14:03:05;96814.19;;;9.13;47.08
60228;BME280;46091;46.512;6.626;2023-12-07T14:05:08;96813.72;;;9.10;47.15
60228;BME280;46091;46.512;6.626;2023-12-07T14:07:14;96809.09;;;9.12;47.01
60228;BME280;46091;46.512;6.626;2023-12-07T14:09:17;96803.00;;;9.11;47.25
60228;BME280;46091;46.512;6.626;2023-12-07T14:11:20;96797.72;;;9.11;47.25
60228;BME280;46091;46.512;6.626;2023-12-07T14:13:23;96800.34;;;9.11;46.85
60228;BME280;46091;46.512;6.626;2023-12-07T14:15:27;96794.47;;;9.09;46.76
60228;BME280;46091;46.512;6.626;2023-12-07T14:17:45;96788.91;;;9.04;46.78
60228;BME280;46091;46.512;6.626;2023-12-07T14:19:54;96799.44;;;9.04;47.01
60228;BME280;46091;46.512;6.626;2023-12-07T14:22:16;96795.19;;;9.03;47.03
60228;BME280;46091;46.512;6.626;2023-12-07T14:24:19;96795.19;;;9.03;47.02
60228;BME280;46091;46.512;6.626;2023-12-07T14:26:21;96793.53;;;9.02;46.75
60228;BME280;46091;46.512;6.626;2023-12-07T14:28:25;96787.25;;;9.03;46.86
60228;BME280;46091;46.512;6.626;2023-12-07T14:30:29;96794.16;;;9.04;46.73
60228;BME280;46091;46.512;6.626;2023-12-07T14:32:32;96788.91;;;9.04;46.60
60228;BME280;46091;46.512;6.626;2023-12-07T14:34:34;96785.44;;;9.03;46.73
60228;BME280;46091;46.512;6.626;2023-12-07T14:36:38;96787.25;;;9.03;46.90
60228;BME280;46091;46.512;6.626;2023-12-07T14:38:43;96779.34;;;9.03;47.10
60228;BME280;46091;46.512;6.626;2023-12-07T14:40:45;96789.91;;;9.03;46.82
60228;BME280;46091;46.512;6.626;2023-12-07T14:42:49;96789.09;;;9.02;47.03
60228;BME280;46091;46.512;6.626;2023-12-07T14:44:53;96789.28;;;9.01;46.99
60228;BME280;46091;46.512;6.626;2023-12-07T14:46:56;96792.72;;;9.01;46.77
60228;BME280;46091;46.512;6.626;2023-12-07T14:48:59;96785.00;;;9.00;46.49
60228;BME280;46091;46.512;6.626;2023-12-07T14:51:02;96775.47;;;8.99;46.67
60228;BME280;46091;46.512;6.626;2023-12-07T14:53:05;96770.19;;;8.99;46.64
60228;BME280;46091;46.512;6.626;2023-12-07T14:55:07;96764.28;;;8.97;46.68
60228;BME280;46091;46.512;6.626;2023-12-07T14:57:10;96761.47;;;8.98;46.52
60228;BME280;46091;46.512;6.626;2023-12-07T14:59:13;96764.91;;;8.99;46.38
60228;BME280;46091;46.512;6.626;2023-12-07T15:01:18;96765.72;;;8.99;46.31
60228;BME280;46091;46.512;6.626;2023-12-07T15:03:20;96759.81;;;8.97;46.55
60228;BME280;46091;46.512;6.626;2023-12-07T15:05:24;96752.72;;;8.98;46.67
60228;BME280;46091;46.512;6.626;2023-12-07T15:07:27;96747.66;;;8.96;46.30
60228;BME280;46091;46.512;6.626;2023-12-07T15:09:31;96759.00;;;8.97;46.41
60228;BME280;46091;46.512;6.626;2023-12-07T15:11:36;96753.25;;;8.93;46.36
60228;BME280;46091;46.512;6.626;2023-12-07T15:13:39;96756.28;;;8.90;46.33
60228;BME280;46091;46.512;6.626;2023-12-07T15:15:43;96764.00;;;8.92;46.24
60228;BME280;46091;46.512;6.626;2023-12-07T15:17:48;96755.28;;;8.91;46.18
60228;BME280;46091;46.512;6.626;2023-12-07T15:19:51;96759.72;;;8.91;46.36
60228;BME280;46091;46.512;6.626;2023-12-07T15:21:54;96738.63;;;8.91;46.12
60228;BME280;46091;46.512;6.626;2023-12-07T15:23:58;96739.00;;;8.88;45.97
60228;BME280;46091;46.512;6.626;2023-12-07T15:26:02;96746.28;;;8.86;46.35
60228;BME280;46091;46.512;6.626;2023-12-07T15:28:05;96745.47;;;8.85;46.31
60228;BME280;46091;46.512;6.626;2023-12-07T15:30:13;96740.19;;;8.85;46.22
60228;BME280;46091;46.512;6.626;2023-12-07T15:32:17;96754.38;;;8.84;46.08
60228;BME280;46091;46.512;6.626;2023-12-07T15:34:21;96757.38;;;8.81;46.42
60228;BME280;46091;46.512;6.626;2023-12-07T15:36:38;96747.38;;;8.77;46.27
60228;BME280;46091;46.512;6.626;2023-12-07T15:38:41;96760.38;;;8.78;46.21
60228;BME280;46091;46.512;6.626;2023-12-07T15:40:44;96766.03;;;8.75;46.13
60228;BME280;46091;46.512;6.626;2023-12-07T15:42:47;96762.75;;;8.73;46.13
60228;BME280;46091;46.512;6.626;2023-12-07T15:44:50;96761.94;;;8.72;46.27
60228;BME280;46091;46.512;6.626;2023-12-07T15:46:53;96760.28;;;8.71;46.37
60228;BME280;46091;46.512;6.626;2023-12-07T15:48:56;96756.00;;;8.70;46.39
60228;BME280;46091;46.512;6.626;2023-12-07T15:51:02;96757.63;;;8.71;46.63
60228;BME280;46091;46.512;6.626;2023-12-07T15:53:05;96754.38;;;8.69;46.46
60228;BME280;46091;46.512;6.626;2023-12-07T15:55:09;96760.38;;;8.63;46.97
60228;BME280;46091;46.512;6.626;2023-12-07T15:57:12;96759.75;;;8.61;46.66
60228;BME280;46091;46.512;6.626;2023-12-07T15:59:15;96751.84;;;8.61;47.03
60228;BME280;46091;46.512;6.626;2023-12-07T16:01:18;96747.56;;;8.60;46.85
60228;BME280;46091;46.512;6.626;2023-12-07T16:03:21;96744.91;;;8.60;47.26
60228;BME280;46091;46.512;6.626;2023-12-07T16:05:25;96739.50;;;8.62;47.39
60228;BME280;46091;46.512;6.626;2023-12-07T16:07:30;96738.69;;;8.61;47.61
60228;BME280;46091;46.512;6.626;2023-12-07T16:09:33;96739.31;;;8.63;47.25
60228;BME280;46091;46.512;6.626;2023-12-07T16:11:36;96735.22;;;8.61;47.72
60228;BME280;46091;46.512;6.626;2023-12-07T16:13:39;96723.03;;;8.60;47.61
60228;BME280;46091;46.512;6.626;2023-12-07T16:15:42;96723.03;;;8.60;47.70
60228;BME280;46091;46.512;6.626;2023-12-07T16:17:45;96718.56;;;8.60;47.74
60228;BME280;46091;46.512;6.626;2023-12-07T16:19:50;96720.22;;;8.61;47.69
60228;BME280;46091;46.512;6.626;2023-12-07T16:21:53;96717.75;;;8.60;47.68
60228;BME280;46091;46.512;6.626;2023-12-07T16:23:57;96719.56;;;8.59;47.80
60228;BME280;46091;46.512;6.626;2023-12-07T16:26:01;96724.84;;;8.59;47.84
60228;BME280;46091;46.512;6.626;2023-12-07T16:28:04;96734.56;;;8.59;47.80
60228;BME280;46091;46.512;6.626;2023-12-07T16:30:08;96725.84;;;8.58;47.85
60228;BME280;46091;46.512;6.626;2023-12-07T16:32:14;96710.50;;;8.62;47.76
60228;BME280;46091;46.512;6.626;2023-12-07T16:34:17;96697.97;;;8.64;48.00
60228;BME280;46091;46.512;6.626;2023-12-07T16:36:21;96690.06;;;8.64;47.76
60228;BME280;46091;46.512;6.626;2023-12-07T16:38:24;96680.97;;;8.66;47.99
60228;BME280;46091;46.512;6.626;2023-12-07T16:40:29;96679.31;;;8.65;47.67
60228;BME280;46091;46.512;6.626;2023-12-07T16:42:31;96685.22;;;8.67;47.73
60228;BME280;46091;46.512;6.626;2023-12-07T16:44:35;96676.69;;;8.65;47.76
60228;BME280;46091;46.512;6.626;2023-12-07T16:46:38;96675.06;;;8.64;47.69
60228;BME280;46091;46.512;6.626;2023-12-07T16:48:41;96675.88;;;8.65;47.83
60228;BME280;46091;46.512;6.626;2023-12-07T16:50:44;96681.97;;;8.65;47.77
60228;BME280;46091;46.512;6.626;2023-12-07T16:52:47;96681.59;;;8.68;47.79
60228;BME280;46091;46.512;6.626;2023-12-07T16:54:58;96674.31;;;8.70;47.71
60228;BME280;46091;46.512;6.626;2023-12-07T16:57:03;96674.31;;;8.70;47.71
60228;BME280;46091;46.512;6.626;2023-12-07T16:59:06;96677.94;;;8.69;47.65
60228;BME280;46091;46.512;6.626;2023-12-07T17:01:09;96676.13;;;8.70;47.41
60228;BME280;46091;46.512;6.626;2023-12-07T17:03:12;96683.22;;;8.69;47.73
60228;BME280;46091;46.512;6.626;2023-12-07T17:05:15;96676.94;;;8.70;47.58
60228;BME280;46091;46.512;6.626;2023-12-07T17:07:18;96666.88;;;8.74;47.44
60228;BME280;46091;46.512;6.626;2023-12-07T17:09:22;96665.03;;;8.74;47.70
60228;BME280;46091;46.512;6.626;2023-12-07T17:11:25;96669.50;;;8.74;47.32
60228;BME280;46091;46.512;6.626;2023-12-07T17:13:29;96673.13;;;8.73;47.52
60228;BME280;46091;46.512;6.626;2023-12-07T17:15:32;96674.97;;;8.72;47.66
60228;BME280;46091;46.512;6.626;2023-12-07T17:17:35;96673.50;;;8.70;47.46
60228;BME280;46091;46.512;6.626;2023-12-07T17:19:39;96684.22;;;8.68;47.56
60228;BME280;46091;46.512;6.626;2023-12-07T17:21:52;96687.84;;;8.67;47.34
60228;BME280;46091;46.512;6.626;2023-12-07T17:23:57;96693.31;;;8.66;47.37
60228;BME280;46091;46.512;6.626;2023-12-07T17:26:00;96701.41;;;8.64;47.74
60228;BME280;46091;46.512;6.626;2023-12-07T17:28:03;96708.50;;;8.64;47.93
60228;BME280;46091;46.512;6.626;2023-12-07T17:30:08;96716.59;;;8.62;47.81
60228;BME280;46091;46.512;6.626;2023-12-07T17:32:12;96719.41;;;8.61;47.73
60228;BME280;46091;46.512;6.626;2023-12-07T17:34:15;96713.47;;;8.59;47.92
60228;BME280;46091;46.512;6.626;2023-12-07T17:36:17;96724.50;;;8.62;48.29
60228;BME280;46091;46.512;6.626;2023-12-07T17:38:20;96721.19;;;8.60;48.30
60228;BME280;46091;46.512;6.626;2023-12-07T17:40:23;96719.56;;;8.59;48.33